sensor_id;sensor_type;location;lat;lon;timestamp;P1;durP1;ratioP1;P2;durP2;ratioP2
63807;SDS011;49961;43.970;22.868;2023-03-30T00:00:36;6.43;;;3.40;;
63807;SDS011;49961;43.970;22.868;2023-03-30T00:01:37;5.97;;;2.80;;
63807;SDS011;49961;43.970;22.868;2023-03-30T00:02:37;6.20;;;3.27;;
63807;SDS011;49961;43.970;22.868;2023-03-30T00:03:38;7.17;;;3.10;;
63807;SDS011;49961;43.970;22.868;2023-03-30T00:04:38;13.00;;;3.93;;
63807;SDS011;49961;43.970;22.868;2023-03-30T00:05:41;6.63;;;3.35;;
63807;SDS011;49961;43.970;22.868;2023-03-30T00:06:42;15.27;;;4.03;;
63807;SDS011;49961;43.970;22.868;2023-03-30T00:07:43;12.27;;;4.13;;
63807;SDS011;49961;43.970;22.868;2023-03-30T00:08:44;5.13;;;2.80;;
63807;SDS011;49961;43.970;22.868;2023-03-30T00:09:44;11.00;;;3.70;;
63807;SDS011;49961;43.970;22.868;2023-03-30T00:10:45;5.30;;;2.67;;
63807;SDS011;49961;43.970;22.868;2023-03-30T00:11:46;10.57;;;3.78;;
63807;SDS011;49961;43.970;22.868;2023-03-30T00:12:48;10.80;;;3.80;;
63807;SDS011;49961;43.970;22.868;2023-03-30T00:13:49;10.50;;;3.30;;
63807;SDS011;49961;43.970;22.868;2023-03-30T00:14:50;5.50;;;3.10;;
63807;SDS011;49961;43.970;22.868;2023-03-30T00:15:51;6.87;;;3.30;;
63807;SDS011;49961;43.970;22.868;2023-03-30T00:16:51;5.93;;;3.10;;
63807;SDS011;49961;43.970;22.868;2023-03-30T00:17:52;5.47;;;3.43;;
63807;SDS011;49961;43.970;22.868;2023-03-30T00:18:53;7.82;;;3.88;;
63807;SDS011;49961;43.970;22.868;2023-03-30T00:19:54;8.10;;;4.20;;
63807;SDS011;49961;43.970;22.868;2023-03-30T00:20:55;6.53;;;4.00;;
63807;SDS011;49961;43.970;22.868;2023-03-30T00:21:57;6.03;;;4.05;;
63807;SDS011;49961;43.970;22.868;2023-03-30T00:22:57;8.37;;;4.30;;
63807;SDS011;49961;43.970;22.868;2023-03-30T00:23:58;6.80;;;3.63;;
63807;SDS011;49961;43.970;22.868;2023-03-30T00:24:58;7.00;;;3.37;;
63807;SDS011;49961;43.970;22.868;2023-03-30T00:25:59;12.93;;;3.27;;
63807;SDS011;49961;43.970;22.868;2023-03-30T00:27:00;6.13;;;3.30;;
63807;SDS011;49961;43.970;22.868;2023-03-30T00:28:00;6.90;;;3.20;;
63807;SDS011;49961;43.970;22.868;2023-03-30T00:29:01;5.30;;;3.17;;
63807;SDS011;49961;43.970;22.868;2023-03-30T00:30:05;3.30;;;2.40;;
63807;SDS011;49961;43.970;22.868;2023-03-30T00:31:07;5.30;;;3.10;;
63807;SDS011;49961;43.970;22.868;2023-03-30T00:32:10;4.20;;;2.92;;
63807;SDS011;49961;43.970;22.868;2023-03-30T00:33:10;5.90;;;3.27;;
63807;SDS011;49961;43.970;22.868;2023-03-30T00:34:11;5.73;;;3.27;;
63807;SDS011;49961;43.970;22.868;2023-03-30T00:35:11;5.10;;;2.97;;
63807;SDS011;49961;43.970;22.868;2023-03-30T00:36:14;5.22;;;2.75;;
63807;SDS011;49961;43.970;22.868;2023-03-30T00:37:15;6.72;;;3.40;;
63807;SDS011;49961;43.970;22.868;2023-03-30T00:38:15;6.83;;;3.27;;
63807;SDS011;49961;43.970;22.868;2023-03-30T00:39:16;6.03;;;3.20;;
63807;SDS011;49961;43.970;22.868;2023-03-30T00:40:19;5.13;;;3.30;;
63807;SDS011;49961;43.970;22.868;2023-03-30T00:41:20;5.07;;;3.20;;
63807;SDS011;49961;43.970;22.868;2023-03-30T00:42:20;6.63;;;3.13;;
63807;SDS011;49961;43.970;22.868;2023-03-30T00:43:21;4.90;;;3.00;;
63807;SDS011;49961;43.970;22.868;2023-03-30T00:45:59;5.70;;;2.92;;
63807;SDS011;49961;43.970;22.868;2023-03-30T00:47:00;5.13;;;3.23;;
63807;SDS011;49961;43.970;22.868;2023-03-30T00:49:36;5.03;;;3.40;;
63807;SDS011;49961;43.970;22.868;2023-03-30T00:51:39;7.05;;;3.15;;
63807;SDS011;49961;43.970;22.868;2023-03-30T00:52:42;5.78;;;3.25;;
63807;SDS011;49961;43.970;22.868;2023-03-30T00:53:44;6.00;;;3.33;;
63807;SDS011;49961;43.970;22.868;2023-03-30T00:54:52;6.18;;;3.40;;
63807;SDS011;49961;43.970;22.868;2023-03-30T00:55:56;5.15;;;3.17;;
63807;SDS011;49961;43.970;22.868;2023-03-30T00:56:57;4.80;;;3.20;;
63807;SDS011;49961;43.970;22.868;2023-03-30T00:57:58;6.50;;;3.10;;
63807;SDS011;49961;43.970;22.868;2023-03-30T00:58:59;6.00;;;3.23;;
63807;SDS011;49961;43.970;22.868;2023-03-30T01:00:02;9.02;;;3.33;;
63807;SDS011;49961;43.970;22.868;2023-03-30T01:01:06;8.20;;;3.33;;
63807;SDS011;49961;43.970;22.868;2023-03-30T01:02:09;7.63;;;3.45;;
63807;SDS011;49961;43.970;22.868;2023-03-30T01:03:13;5.23;;;2.93;;
63807;SDS011;49961;43.970;22.868;2023-03-30T01:04:17;5.60;;;3.10;;
63807;SDS011;49961;43.970;22.868;2023-03-30T01:05:18;7.57;;;2.90;;
63807;SDS011;49961;43.970;22.868;2023-03-30T01:06:19;5.55;;;2.85;;
63807;SDS011;49961;43.970;22.868;2023-03-30T01:07:23;5.82;;;2.95;;
63807;SDS011;49961;43.970;22.868;2023-03-30T01:08:24;7.50;;;2.87;;
63807;SDS011;49961;43.970;22.868;2023-03-30T01:09:31;6.32;;;3.25;;
63807;SDS011;49961;43.970;22.868;2023-03-30T01:10:32;7.40;;;3.10;;
63807;SDS011;49961;43.970;22.868;2023-03-30T01:11:34;4.75;;;2.80;;
63807;SDS011;49961;43.970;22.868;2023-03-30T01:12:34;7.93;;;3.40;;
63807;SDS011;49961;43.970;22.868;2023-03-30T01:13:45;8.27;;;3.42;;
63807;SDS011;49961;43.970;22.868;2023-03-30T01:14:49;6.55;;;3.17;;
63807;SDS011;49961;43.970;22.868;2023-03-30T01:16:00;7.63;;;3.30;;
63807;SDS011;49961;43.970;22.868;2023-03-30T01:18:26;9.52;;;3.65;;
63807;SDS011;49961;43.970;22.868;2023-03-30T01:31:58;15.35;;;5.07;;
63807;SDS011;49961;43.970;22.868;2023-03-30T01:39:01;11.85;;;4.28;;
63807;SDS011;49961;43.970;22.868;2023-03-30T01:40:45;11.13;;;4.28;;
63807;SDS011;49961;43.970;22.868;2023-03-30T01:42:05;15.63;;;4.32;;
63807;SDS011;49961;43.970;22.868;2023-03-30T01:43:18;10.35;;;4.05;;
63807;SDS011;49961;43.970;22.868;2023-03-30T01:45:53;8.93;;;3.42;;
63807;SDS011;49961;43.970;22.868;2023-03-30T01:47:46;10.93;;;3.42;;
63807;SDS011;49961;43.970;22.868;2023-03-30T01:48:38;7.35;;;3.17;;
63807;SDS011;49961;43.970;22.868;2023-03-30T01:49:44;13.30;;;3.42;;
63807;SDS011;49961;43.970;22.868;2023-03-30T01:50:57;6.07;;;3.40;;
63807;SDS011;49961;43.970;22.868;2023-03-30T01:52:04;5.57;;;3.70;;
63807;SDS011;49961;43.970;22.868;2023-03-30T01:54:18;6.85;;;3.42;;
63807;SDS011;49961;43.970;22.868;2023-03-30T01:55:24;9.52;;;4.00;;
63807;SDS011;49961;43.970;22.868;2023-03-30T01:56:43;8.75;;;4.10;;
63807;SDS011;49961;43.970;22.868;2023-03-30T01:57:54;11.02;;;4.10;;
63807;SDS011;49961;43.970;22.868;2023-03-30T01:59:01;9.98;;;4.00;;
63807;SDS011;49961;43.970;22.868;2023-03-30T02:00:13;10.88;;;4.30;;
63807;SDS011;49961;43.970;22.868;2023-03-30T02:01:16;9.52;;;3.95;;
63807;SDS011;49961;43.970;22.868;2023-03-30T02:02:20;12.32;;;4.50;;
63807;SDS011;49961;43.970;22.868;2023-03-30T02:03:24;14.27;;;4.93;;
63807;SDS011;49961;43.970;22.868;2023-03-30T02:04:28;8.63;;;4.40;;
63807;SDS011;49961;43.970;22.868;2023-03-30T02:05:32;14.57;;;4.80;;
63807;SDS011;49961;43.970;22.868;2023-03-30T02:06:45;12.13;;;4.95;;
63807;SDS011;49961;43.970;22.868;2023-03-30T02:07:52;9.88;;;4.68;;
63807;SDS011;49961;43.970;22.868;2023-03-30T02:08:56;15.10;;;4.85;;
63807;SDS011;49961;43.970;22.868;2023-03-30T02:10:00;10.25;;;4.80;;
63807;SDS011;49961;43.970;22.868;2023-03-30T02:11:03;26.80;;;6.65;;
63807;SDS011;49961;43.970;22.868;2023-03-30T02:12:04;28.17;;;7.30;;
63807;SDS011;49961;43.970;22.868;2023-03-30T02:13:07;21.08;;;6.45;;
63807;SDS011;49961;43.970;22.868;2023-03-30T02:14:09;21.85;;;6.75;;
63807;SDS011;49961;43.970;22.868;2023-03-30T02:15:13;20.38;;;5.38;;
63807;SDS011;49961;43.970;22.868;2023-03-30T02:16:20;8.10;;;4.15;;
63807;SDS011;49961;43.970;22.868;2023-03-30T02:17:25;10.43;;;4.53;;
63807;SDS011;49961;43.970;22.868;2023-03-30T02:18:28;15.43;;;5.45;;
63807;SDS011;49961;43.970;22.868;2023-03-30T02:19:28;18.40;;;5.80;;
63807;SDS011;49961;43.970;22.868;2023-03-30T02:20:29;25.43;;;5.67;;
63807;SDS011;49961;43.970;22.868;2023-03-30T02:21:32;26.15;;;6.10;;
63807;SDS011;49961;43.970;22.868;2023-03-30T02:22:32;24.70;;;7.17;;
63807;SDS011;49961;43.970;22.868;2023-03-30T02:23:34;23.87;;;6.43;;
63807;SDS011;49961;43.970;22.868;2023-03-30T02:24:38;13.55;;;4.10;;
63807;SDS011;49961;43.970;22.868;2023-03-30T02:25:40;8.02;;;4.03;;
63807;SDS011;49961;43.970;22.868;2023-03-30T02:26:41;9.23;;;3.92;;
63807;SDS011;49961;43.970;22.868;2023-03-30T02:27:41;7.17;;;3.93;;
63807;SDS011;49961;43.970;22.868;2023-03-30T02:28:42;7.37;;;4.23;;
63807;SDS011;49961;43.970;22.868;2023-03-30T02:29:43;11.10;;;4.20;;
63807;SDS011;49961;43.970;22.868;2023-03-30T02:30:44;10.48;;;3.70;;
63807;SDS011;49961;43.970;22.868;2023-03-30T02:31:47;9.40;;;4.45;;
63807;SDS011;49961;43.970;22.868;2023-03-30T02:32:53;7.40;;;3.50;;
63807;SDS011;49961;43.970;22.868;2023-03-30T02:34:07;6.00;;;3.15;;
63807;SDS011;49961;43.970;22.868;2023-03-30T02:41:14;7.40;;;3.45;;
63807;SDS011;49961;43.970;22.868;2023-03-30T02:43:36;7.63;;;3.70;;
63807;SDS011;49961;43.970;22.868;2023-03-30T02:47:11;5.28;;;3.20;;
63807;SDS011;49961;43.970;22.868;2023-03-30T02:48:30;4.68;;;3.15;;
63807;SDS011;49961;43.970;22.868;2023-03-30T02:53:43;6.85;;;2.85;;
63807;SDS011;49961;43.970;22.868;2023-03-30T02:57:11;6.90;;;3.08;;
63807;SDS011;49961;43.970;22.868;2023-03-30T02:58:20;8.63;;;3.33;;
63807;SDS011;49961;43.970;22.868;2023-03-30T02:59:29;7.40;;;3.28;;
63807;SDS011;49961;43.970;22.868;2023-03-30T03:00:44;10.73;;;3.33;;
63807;SDS011;49961;43.970;22.868;2023-03-30T03:01:57;7.07;;;3.40;;
63807;SDS011;49961;43.970;22.868;2023-03-30T03:03:05;7.72;;;3.72;;
63807;SDS011;49961;43.970;22.868;2023-03-30T03:04:11;8.68;;;3.85;;
63807;SDS011;49961;43.970;22.868;2023-03-30T03:05:14;10.88;;;4.07;;
63807;SDS011;49961;43.970;22.868;2023-03-30T03:06:15;6.38;;;3.67;;
63807;SDS011;49961;43.970;22.868;2023-03-30T03:07:19;4.78;;;3.22;;
63807;SDS011;49961;43.970;22.868;2023-03-30T03:08:23;7.40;;;3.60;;
63807;SDS011;49961;43.970;22.868;2023-03-30T03:09:24;5.25;;;3.20;;
63807;SDS011;49961;43.970;22.868;2023-03-30T03:10:25;6.30;;;3.30;;
63807;SDS011;49961;43.970;22.868;2023-03-30T03:11:25;9.20;;;3.67;;
63807;SDS011;49961;43.970;22.868;2023-03-30T03:12:26;8.47;;;3.90;;
63807;SDS011;49961;43.970;22.868;2023-03-30T03:13:27;7.50;;;4.15;;
63807;SDS011;49961;43.970;22.868;2023-03-30T03:14:28;6.53;;;4.13;;
63807;SDS011;49961;43.970;22.868;2023-03-30T03:15:28;8.80;;;4.13;;
63807;SDS011;49961;43.970;22.868;2023-03-30T03:16:29;14.37;;;4.67;;
63807;SDS011;49961;43.970;22.868;2023-03-30T03:17:29;7.70;;;4.13;;
63807;SDS011;49961;43.970;22.868;2023-03-30T03:18:33;8.30;;;3.95;;
63807;SDS011;49961;43.970;22.868;2023-03-30T03:19:40;6.68;;;4.10;;
63807;SDS011;49961;43.970;22.868;2023-03-30T03:20:41;6.43;;;3.40;;
63807;SDS011;49961;43.970;22.868;2023-03-30T03:21:41;6.83;;;3.73;;
63807;SDS011;49961;43.970;22.868;2023-03-30T03:22:42;8.20;;;3.87;;
63807;SDS011;49961;43.970;22.868;2023-03-30T03:23:42;5.27;;;3.20;;
63807;SDS011;49961;43.970;22.868;2023-03-30T03:24:43;7.03;;;3.47;;
63807;SDS011;49961;43.970;22.868;2023-03-30T03:25:43;7.17;;;3.70;;
63807;SDS011;49961;43.970;22.868;2023-03-30T03:26:44;6.60;;;3.57;;
63807;SDS011;49961;43.970;22.868;2023-03-30T03:27:45;6.60;;;3.53;;
63807;SDS011;49961;43.970;22.868;2023-03-30T03:28:46;5.78;;;3.72;;
63807;SDS011;49961;43.970;22.868;2023-03-30T03:29:46;5.63;;;3.70;;
63807;SDS011;49961;43.970;22.868;2023-03-30T03:30:50;7.90;;;3.50;;
63807;SDS011;49961;43.970;22.868;2023-03-30T03:31:51;5.53;;;3.85;;
63807;SDS011;49961;43.970;22.868;2023-03-30T03:32:51;6.83;;;3.53;;
63807;SDS011;49961;43.970;22.868;2023-03-30T03:33:52;8.93;;;3.40;;
63807;SDS011;49961;43.970;22.868;2023-03-30T03:34:52;6.47;;;3.97;;
63807;SDS011;49961;43.970;22.868;2023-03-30T03:35:53;6.90;;;3.87;;
63807;SDS011;49961;43.970;22.868;2023-03-30T03:36:54;8.23;;;3.80;;
63807;SDS011;49961;43.970;22.868;2023-03-30T03:37:54;11.67;;;4.07;;
63807;SDS011;49961;43.970;22.868;2023-03-30T03:38:55;11.73;;;4.00;;
63807;SDS011;49961;43.970;22.868;2023-03-30T03:39:55;7.70;;;4.10;;
63807;SDS011;49961;43.970;22.868;2023-03-30T03:40:56;10.23;;;4.20;;
63807;SDS011;49961;43.970;22.868;2023-03-30T03:41:58;7.35;;;3.65;;
63807;SDS011;49961;43.970;22.868;2023-03-30T03:42:58;8.37;;;3.60;;
63807;SDS011;49961;43.970;22.868;2023-03-30T03:43:58;9.40;;;3.73;;
63807;SDS011;49961;43.970;22.868;2023-03-30T03:44:59;7.87;;;3.43;;
63807;SDS011;49961;43.970;22.868;2023-03-30T03:45:59;5.37;;;3.53;;
63807;SDS011;49961;43.970;22.868;2023-03-30T03:47:00;9.60;;;3.40;;
63807;SDS011;49961;43.970;22.868;2023-03-30T03:48:00;12.30;;;4.30;;
63807;SDS011;49961;43.970;22.868;2023-03-30T03:49:01;13.33;;;4.43;;
63807;SDS011;49961;43.970;22.868;2023-03-30T03:50:01;13.53;;;4.27;;
63807;SDS011;49961;43.970;22.868;2023-03-30T03:51:05;13.82;;;4.78;;
63807;SDS011;49961;43.970;22.868;2023-03-30T03:52:06;12.80;;;4.17;;
63807;SDS011;49961;43.970;22.868;2023-03-30T03:53:10;15.60;;;4.57;;
63807;SDS011;49961;43.970;22.868;2023-03-30T03:54:11;7.75;;;3.60;;
63807;SDS011;49961;43.970;22.868;2023-03-30T03:55:12;6.33;;;3.60;;
63807;SDS011;49961;43.970;22.868;2023-03-30T03:56:13;7.47;;;3.42;;
63807;SDS011;49961;43.970;22.868;2023-03-30T03:57:13;8.53;;;4.23;;
63807;SDS011;49961;43.970;22.868;2023-03-30T03:58:15;9.20;;;3.80;;
63807;SDS011;49961;43.970;22.868;2023-03-30T03:59:15;9.10;;;4.40;;
63807;SDS011;49961;43.970;22.868;2023-03-30T04:00:16;12.30;;;4.50;;
63807;SDS011;49961;43.970;22.868;2023-03-30T04:01:17;8.27;;;4.53;;
63807;SDS011;49961;43.970;22.868;2023-03-30T04:02:18;9.57;;;4.00;;
63807;SDS011;49961;43.970;22.868;2023-03-30T04:03:18;8.87;;;4.07;;
63807;SDS011;49961;43.970;22.868;2023-03-30T04:04:18;10.40;;;4.60;;
63807;SDS011;49961;43.970;22.868;2023-03-30T04:05:19;6.07;;;3.63;;
63807;SDS011;49961;43.970;22.868;2023-03-30T04:06:19;7.50;;;4.10;;
63807;SDS011;49961;43.970;22.868;2023-03-30T04:07:20;7.50;;;4.13;;
63807;SDS011;49961;43.970;22.868;2023-03-30T04:08:20;9.53;;;4.50;;
63807;SDS011;49961;43.970;22.868;2023-03-30T04:09:21;16.57;;;5.23;;
63807;SDS011;49961;43.970;22.868;2023-03-30T04:10:22;17.92;;;6.25;;
63807;SDS011;49961;43.970;22.868;2023-03-30T04:11:23;27.67;;;6.50;;
63807;SDS011;49961;43.970;22.868;2023-03-30T04:12:23;13.93;;;5.07;;
63807;SDS011;49961;43.970;22.868;2023-03-30T04:13:23;11.00;;;4.30;;
63807;SDS011;49961;43.970;22.868;2023-03-30T04:14:24;6.70;;;3.43;;
63807;SDS011;49961;43.970;22.868;2023-03-30T04:15:25;14.37;;;7.77;;
63807;SDS011;49961;43.970;22.868;2023-03-30T04:16:26;16.15;;;5.88;;
63807;SDS011;49961;43.970;22.868;2023-03-30T04:17:27;7.03;;;3.50;;
63807;SDS011;49961;43.970;22.868;2023-03-30T04:18:28;5.40;;;3.23;;
63807;SDS011;49961;43.970;22.868;2023-03-30T04:19:32;7.18;;;3.30;;
63807;SDS011;49961;43.970;22.868;2023-03-30T04:20:33;7.20;;;3.27;;
63807;SDS011;49961;43.970;22.868;2023-03-30T04:21:33;5.90;;;3.63;;
63807;SDS011;49961;43.970;22.868;2023-03-30T04:22:34;5.47;;;3.55;;
63807;SDS011;49961;43.970;22.868;2023-03-30T04:23:35;14.40;;;4.17;;
63807;SDS011;49961;43.970;22.868;2023-03-30T04:24:35;8.80;;;3.63;;
63807;SDS011;49961;43.970;22.868;2023-03-30T04:25:35;9.83;;;4.23;;
63807;SDS011;49961;43.970;22.868;2023-03-30T04:26:36;10.20;;;4.30;;
63807;SDS011;49961;43.970;22.868;2023-03-30T04:27:37;12.90;;;4.50;;
63807;SDS011;49961;43.970;22.868;2023-03-30T04:28:37;10.33;;;3.90;;
63807;SDS011;49961;43.970;22.868;2023-03-30T04:29:39;9.15;;;4.07;;
63807;SDS011;49961;43.970;22.868;2023-03-30T04:30:40;10.37;;;4.27;;
63807;SDS011;49961;43.970;22.868;2023-03-30T04:31:40;11.13;;;4.87;;
63807;SDS011;49961;43.970;22.868;2023-03-30T04:32:41;19.30;;;12.53;;
63807;SDS011;49961;43.970;22.868;2023-03-30T04:33:43;8.45;;;5.65;;
63807;SDS011;49961;43.970;22.868;2023-03-30T04:34:52;7.47;;;5.22;;
63807;SDS011;49961;43.970;22.868;2023-03-30T04:35:55;10.50;;;4.80;;
63807;SDS011;49961;43.970;22.868;2023-03-30T04:36:55;10.83;;;5.27;;
63807;SDS011;49961;43.970;22.868;2023-03-30T04:37:57;12.75;;;4.47;;
63807;SDS011;49961;43.970;22.868;2023-03-30T04:38:59;9.98;;;4.00;;
63807;SDS011;49961;43.970;22.868;2023-03-30T04:40:00;7.20;;;4.20;;
63807;SDS011;49961;43.970;22.868;2023-03-30T04:41:01;6.85;;;4.13;;
63807;SDS011;49961;43.970;22.868;2023-03-30T04:42:01;9.50;;;5.60;;
63807;SDS011;49961;43.970;22.868;2023-03-30T04:43:03;13.55;;;7.40;;
63807;SDS011;49961;43.970;22.868;2023-03-30T04:44:05;10.77;;;7.13;;
63807;SDS011;49961;43.970;22.868;2023-03-30T04:45:07;14.25;;;8.20;;
63807;SDS011;49961;43.970;22.868;2023-03-30T04:46:07;17.03;;;7.90;;
63807;SDS011;49961;43.970;22.868;2023-03-30T04:47:08;13.77;;;8.87;;
63807;SDS011;49961;43.970;22.868;2023-03-30T04:48:08;14.97;;;9.40;;
63807;SDS011;49961;43.970;22.868;2023-03-30T04:49:09;16.50;;;9.47;;
63807;SDS011;49961;43.970;22.868;2023-03-30T04:50:09;17.90;;;9.60;;
63807;SDS011;49961;43.970;22.868;2023-03-30T04:51:10;17.80;;;10.53;;
63807;SDS011;49961;43.970;22.868;2023-03-30T04:52:10;18.17;;;10.67;;
63807;SDS011;49961;43.970;22.868;2023-03-30T04:53:11;13.93;;;9.13;;
63807;SDS011;49961;43.970;22.868;2023-03-30T04:54:14;20.40;;;8.88;;
63807;SDS011;49961;43.970;22.868;2023-03-30T04:55:14;13.60;;;8.30;;
63807;SDS011;49961;43.970;22.868;2023-03-30T04:56:14;17.27;;;8.70;;
63807;SDS011;49961;43.970;22.868;2023-03-30T04:57:15;17.67;;;9.53;;
63807;SDS011;49961;43.970;22.868;2023-03-30T04:58:16;13.27;;;7.70;;
63807;SDS011;49961;43.970;22.868;2023-03-30T04:59:16;12.40;;;7.10;;
63807;SDS011;49961;43.970;22.868;2023-03-30T05:00:17;13.03;;;6.87;;
63807;SDS011;49961;43.970;22.868;2023-03-30T05:01:18;13.13;;;6.60;;
63807;SDS011;49961;43.970;22.868;2023-03-30T05:02:19;10.27;;;6.63;;
63807;SDS011;49961;43.970;22.868;2023-03-30T05:03:19;13.47;;;7.27;;
63807;SDS011;49961;43.970;22.868;2023-03-30T05:04:20;10.97;;;6.53;;
63807;SDS011;49961;43.970;22.868;2023-03-30T05:05:21;11.67;;;6.60;;
63807;SDS011;49961;43.970;22.868;2023-03-30T05:06:21;12.60;;;7.10;;
63807;SDS011;49961;43.970;22.868;2023-03-30T05:07:21;13.57;;;7.50;;
63807;SDS011;49961;43.970;22.868;2023-03-30T05:08:22;19.43;;;8.53;;
63807;SDS011;49961;43.970;22.868;2023-03-30T05:09:23;22.40;;;9.23;;
63807;SDS011;49961;43.970;22.868;2023-03-30T05:10:23;22.63;;;9.13;;
63807;SDS011;49961;43.970;22.868;2023-03-30T05:11:24;24.60;;;9.13;;
63807;SDS011;49961;43.970;22.868;2023-03-30T05:12:25;17.27;;;9.60;;
63807;SDS011;49961;43.970;22.868;2023-03-30T05:13:26;16.27;;;9.70;;
63807;SDS011;49961;43.970;22.868;2023-03-30T05:14:26;16.43;;;9.27;;
63807;SDS011;49961;43.970;22.868;2023-03-30T05:15:26;16.50;;;9.87;;
63807;SDS011;49961;43.970;22.868;2023-03-30T05:16:27;16.87;;;10.10;;
63807;SDS011;49961;43.970;22.868;2023-03-30T05:17:27;20.97;;;9.47;;
63807;SDS011;49961;43.970;22.868;2023-03-30T05:18:31;18.73;;;9.15;;
63807;SDS011;49961;43.970;22.868;2023-03-30T05:19:31;19.47;;;9.63;;
63807;SDS011;49961;43.970;22.868;2023-03-30T05:20:32;19.63;;;10.02;;
63807;SDS011;49961;43.970;22.868;2023-03-30T05:21:33;16.90;;;9.00;;
63807;SDS011;49961;43.970;22.868;2023-03-30T05:22:34;22.80;;;9.40;;
63807;SDS011;49961;43.970;22.868;2023-03-30T05:23:35;21.25;;;9.35;;
63807;SDS011;49961;43.970;22.868;2023-03-30T05:24:35;19.10;;;8.60;;
63807;SDS011;49961;43.970;22.868;2023-03-30T05:25:36;19.80;;;8.90;;
63807;SDS011;49961;43.970;22.868;2023-03-30T05:26:36;16.93;;;8.00;;
63807;SDS011;49961;43.970;22.868;2023-03-30T05:27:36;15.70;;;8.63;;
63807;SDS011;49961;43.970;22.868;2023-03-30T05:28:37;16.60;;;8.70;;
63807;SDS011;49961;43.970;22.868;2023-03-30T05:29:37;15.83;;;8.03;;
63807;SDS011;49961;43.970;22.868;2023-03-30T05:30:38;14.40;;;9.03;;
63807;SDS011;49961;43.970;22.868;2023-03-30T05:31:38;15.47;;;9.17;;
63807;SDS011;49961;43.970;22.868;2023-03-30T05:32:39;21.43;;;9.70;;
63807;SDS011;49961;43.970;22.868;2023-03-30T05:33:39;31.50;;;12.93;;
63807;SDS011;49961;43.970;22.868;2023-03-30T05:34:40;30.73;;;12.63;;
63807;SDS011;49961;43.970;22.868;2023-03-30T05:35:40;30.10;;;12.13;;
63807;SDS011;49961;43.970;22.868;2023-03-30T05:36:40;22.40;;;10.00;;
63807;SDS011;49961;43.970;22.868;2023-03-30T05:37:41;17.17;;;9.13;;
63807;SDS011;49961;43.970;22.868;2023-03-30T05:38:42;17.77;;;9.27;;
63807;SDS011;49961;43.970;22.868;2023-03-30T05:39:42;19.10;;;9.20;;
63807;SDS011;49961;43.970;22.868;2023-03-30T05:40:43;18.53;;;8.17;;
63807;SDS011;49961;43.970;22.868;2023-03-30T05:41:43;22.17;;;9.27;;
63807;SDS011;49961;43.970;22.868;2023-03-30T05:42:44;14.47;;;8.40;;
63807;SDS011;49961;43.970;22.868;2023-03-30T05:43:44;17.40;;;7.60;;
63807;SDS011;49961;43.970;22.868;2023-03-30T05:44:46;12.10;;;7.15;;
63807;SDS011;49961;43.970;22.868;2023-03-30T05:45:47;11.57;;;6.40;;
63807;SDS011;49961;43.970;22.868;2023-03-30T05:46:47;13.23;;;6.33;;
63807;SDS011;49961;43.970;22.868;2023-03-30T05:47:47;14.60;;;8.07;;
63807;SDS011;49961;43.970;22.868;2023-03-30T05:48:48;11.73;;;6.97;;
63807;SDS011;49961;43.970;22.868;2023-03-30T05:49:49;13.40;;;6.30;;
63807;SDS011;49961;43.970;22.868;2023-03-30T05:50:49;9.33;;;6.23;;
63807;SDS011;49961;43.970;22.868;2023-03-30T05:51:50;11.27;;;6.03;;
63807;SDS011;49961;43.970;22.868;2023-03-30T05:52:51;7.33;;;5.27;;
63807;SDS011;49961;43.970;22.868;2023-03-30T05:53:51;8.87;;;5.27;;
63807;SDS011;49961;43.970;22.868;2023-03-30T05:54:52;8.30;;;5.40;;
63807;SDS011;49961;43.970;22.868;2023-03-30T05:55:52;7.67;;;5.20;;
63807;SDS011;49961;43.970;22.868;2023-03-30T05:56:53;7.67;;;5.30;;
63807;SDS011;49961;43.970;22.868;2023-03-30T05:57:53;10.43;;;5.87;;
63807;SDS011;49961;43.970;22.868;2023-03-30T05:58:55;9.02;;;5.75;;
63807;SDS011;49961;43.970;22.868;2023-03-30T05:59:56;9.33;;;6.13;;
63807;SDS011;49961;43.970;22.868;2023-03-30T06:00:57;8.13;;;6.17;;
63807;SDS011;49961;43.970;22.868;2023-03-30T06:01:58;9.38;;;5.70;;
63807;SDS011;49961;43.970;22.868;2023-03-30T06:02:58;14.10;;;6.57;;
63807;SDS011;49961;43.970;22.868;2023-03-30T06:03:59;13.00;;;6.20;;
63807;SDS011;49961;43.970;22.868;2023-03-30T06:04:59;13.13;;;6.47;;
63807;SDS011;49961;43.970;22.868;2023-03-30T06:06:00;11.20;;;6.07;;
63807;SDS011;49961;43.970;22.868;2023-03-30T06:07:01;9.23;;;5.17;;
63807;SDS011;49961;43.970;22.868;2023-03-30T06:08:01;7.53;;;5.43;;
63807;SDS011;49961;43.970;22.868;2023-03-30T06:09:03;7.33;;;5.40;;
63807;SDS011;49961;43.970;22.868;2023-03-30T06:10:04;9.37;;;6.07;;
63807;SDS011;49961;43.970;22.868;2023-03-30T06:11:06;8.63;;;5.60;;
63807;SDS011;49961;43.970;22.868;2023-03-30T06:12:06;9.90;;;5.50;;
63807;SDS011;49961;43.970;22.868;2023-03-30T06:13:07;9.73;;;5.90;;
63807;SDS011;49961;43.970;22.868;2023-03-30T06:14:07;8.10;;;5.30;;
63807;SDS011;49961;43.970;22.868;2023-03-30T06:15:09;7.77;;;5.53;;
63807;SDS011;49961;43.970;22.868;2023-03-30T06:16:10;9.17;;;5.80;;
63807;SDS011;49961;43.970;22.868;2023-03-30T06:17:11;7.87;;;5.43;;
63807;SDS011;49961;43.970;22.868;2023-03-30T06:18:13;9.23;;;5.15;;
63807;SDS011;49961;43.970;22.868;2023-03-30T06:19:13;7.53;;;4.90;;
63807;SDS011;49961;43.970;22.868;2023-03-30T06:20:14;7.13;;;5.00;;
63807;SDS011;49961;43.970;22.868;2023-03-30T06:21:14;8.23;;;4.97;;
63807;SDS011;49961;43.970;22.868;2023-03-30T06:22:15;8.10;;;5.20;;
63807;SDS011;49961;43.970;22.868;2023-03-30T06:23:15;9.30;;;5.90;;
63807;SDS011;49961;43.970;22.868;2023-03-30T06:24:16;8.73;;;5.80;;
63807;SDS011;49961;43.970;22.868;2023-03-30T06:25:19;6.95;;;5.00;;
63807;SDS011;49961;43.970;22.868;2023-03-30T06:26:19;8.00;;;5.03;;
63807;SDS011;49961;43.970;22.868;2023-03-30T06:27:20;7.17;;;5.00;;
63807;SDS011;49961;43.970;22.868;2023-03-30T06:28:21;7.60;;;5.37;;
63807;SDS011;49961;43.970;22.868;2023-03-30T06:29:21;7.50;;;4.90;;
63807;SDS011;49961;43.970;22.868;2023-03-30T06:30:22;7.50;;;5.73;;
63807;SDS011;49961;43.970;22.868;2023-03-30T06:31:22;7.77;;;5.37;;
63807;SDS011;49961;43.970;22.868;2023-03-30T06:32:24;11.55;;;6.25;;
63807;SDS011;49961;43.970;22.868;2023-03-30T06:33:25;9.80;;;6.17;;
63807;SDS011;49961;43.970;22.868;2023-03-30T06:34:26;10.23;;;6.70;;
63807;SDS011;49961;43.970;22.868;2023-03-30T06:35:27;9.77;;;6.63;;
63807;SDS011;49961;43.970;22.868;2023-03-30T06:36:28;10.90;;;6.50;;
63807;SDS011;49961;43.970;22.868;2023-03-30T06:37:32;8.90;;;5.90;;
63807;SDS011;49961;43.970;22.868;2023-03-30T06:38:35;8.27;;;6.07;;
63807;SDS011;49961;43.970;22.868;2023-03-30T06:39:35;8.13;;;6.20;;
63807;SDS011;49961;43.970;22.868;2023-03-30T06:40:36;9.38;;;5.93;;
63807;SDS011;49961;43.970;22.868;2023-03-30T06:41:37;10.43;;;6.37;;
63807;SDS011;49961;43.970;22.868;2023-03-30T06:42:40;9.07;;;6.27;;
63807;SDS011;49961;43.970;22.868;2023-03-30T06:43:43;11.23;;;6.80;;
63807;SDS011;49961;43.970;22.868;2023-03-30T06:44:43;12.47;;;6.93;;
63807;SDS011;49961;43.970;22.868;2023-03-30T06:45:50;9.93;;;6.90;;
63807;SDS011;49961;43.970;22.868;2023-03-30T06:46:52;10.60;;;7.50;;
63807;SDS011;49961;43.970;22.868;2023-03-30T06:47:52;11.43;;;8.27;;
63807;SDS011;49961;43.970;22.868;2023-03-30T06:48:52;11.70;;;7.77;;
63807;SDS011;49961;43.970;22.868;2023-03-30T06:49:53;10.93;;;6.63;;